createdAt,value
2022-10-17T00:00:07.838Z,712.33
2022-10-17T00:01:07.873Z,712.53
2022-10-17T00:02:07.822Z,712.39
2022-10-17T00:03:07.840Z,712.39
2022-10-17T00:04:07.790Z,712.26
2022-10-17T00:05:07.792Z,712.69
2022-10-17T00:06:07.811Z,712.71
2022-10-17T00:07:07.769Z,712.90
2022-10-17T00:08:07.749Z,712.47
2022-10-17T00:09:07.748Z,712.15
2022-10-17T00:10:07.743Z,711.10
2022-10-17T00:11:07.730Z,710.62
2022-10-17T00:12:07.734Z,710.63
2022-10-17T00:13:07.710Z,710.58
2022-10-17T00:14:07.693Z,710.91
2022-10-17T00:15:07.680Z,710.95
2022-10-17T00:16:07.685Z,710.66
2022-10-17T00:17:07.655Z,710.50
2022-10-17T00:18:07.642Z,709.73
2022-10-17T00:19:07.653Z,709.81
2022-10-17T00:20:07.632Z,708.98
2022-10-17T00:21:07.622Z,708.78
2022-10-17T00:22:07.623Z,709.09
2022-10-17T00:23:07.606Z,709.24
2022-10-17T00:24:07.608Z,709.15
2022-10-17T00:25:07.562Z,709.23
2022-10-17T00:26:07.596Z,709.43
2022-10-17T00:27:07.574Z,709.52
2022-10-17T00:28:07.545Z,709.01
2022-10-17T00:29:07.594Z,708.60
2022-10-17T00:30:07.510Z,708.67
2022-10-17T00:31:07.505Z,708.71
2022-10-17T00:32:07.514Z,709.01
2022-10-17T00:33:07.485Z,709.27
2022-10-17T00:34:14.761Z,709.62
2022-10-17T00:35:14.710Z,709.36
2022-10-17T00:36:07.471Z,709.35
2022-10-17T00:37:15.697Z,709.90
2022-10-17T00:38:07.437Z,709.78
2022-10-17T00:39:07.417Z,709.78
2022-10-17T00:40:07.410Z,709.99
2022-10-17T00:41:07.438Z,710.12
2022-10-17T00:42:07.391Z,710.37
2022-10-17T00:43:07.388Z,710.52
2022-10-17T00:44:07.378Z,710.52
2022-10-17T00:45:07.351Z,710.47
2022-10-17T00:46:07.352Z,710.67
2022-10-17T00:47:07.347Z,711.21
2022-10-17T00:48:07.330Z,711.55
2022-10-17T00:49:07.299Z,712.12
2022-10-17T00:50:07.307Z,712.03
2022-10-17T00:51:07.310Z,712.38
2022-10-17T00:52:07.278Z,712.41
2022-10-17T00:53:07.259Z,712.53
2022-10-17T00:54:07.261Z,712.43
2022-10-17T00:55:07.242Z,713.25
2022-10-17T00:56:07.233Z,713.85
2022-10-17T00:57:07.496Z,714.20
2022-10-17T00:58:07.212Z,714.66
2022-10-17T00:59:07.196Z,715.00
2022-10-17T01:00:07.181Z,715.58
2022-10-17T01:01:07.223Z,716.10
2022-10-17T01:02:07.172Z,716.49
2022-10-17T01:03:07.153Z,716.99
2022-10-17T01:04:07.134Z,717.38
2022-10-17T01:05:07.143Z,717.69
2022-10-17T01:06:07.126Z,718.03
2022-10-17T01:07:07.134Z,718.17
2022-10-17T01:08:07.108Z,718.33
2022-10-17T01:09:07.081Z,718.07
2022-10-17T01:10:07.096Z,717.25
2022-10-17T01:11:07.094Z,717.02
2022-10-17T01:12:07.045Z,716.52
2022-10-17T01:13:07.042Z,716.66
2022-10-17T01:14:07.027Z,717.20
2022-10-17T01:15:07.035Z,717.35
2022-10-17T01:16:07.027Z,717.64
2022-10-17T01:17:06.997Z,718.29
2022-10-17T01:18:06.993Z,717.78
2022-10-17T01:19:06.967Z,717.70
2022-10-17T01:20:06.983Z,718.15
2022-10-17T01:21:06.956Z,717.76
2022-10-17T01:22:06.969Z,717.87
2022-10-17T01:23:07.867Z,718.19
2022-10-17T01:24:06.916Z,718.41
2022-10-17T01:25:06.918Z,718.81
2022-10-17T01:26:06.901Z,719.04
2022-10-17T01:27:06.897Z,719.71
2022-10-17T01:28:06.878Z,719.29
2022-10-17T01:29:06.872Z,719.53
2022-10-17T01:30:06.856Z,719.62
2022-10-17T01:31:06.844Z,719.34
2022-10-17T01:32:06.858Z,719.07
2022-10-17T01:33:06.824Z,719.18
2022-10-17T01:34:06.812Z,718.92
2022-10-17T01:35:06.820Z,718.99
2022-10-17T01:36:06.807Z,719.13
2022-10-17T01:37:06.773Z,719.60
2022-10-17T01:38:06.790Z,719.52
2022-10-17T01:39:06.821Z,719.61
2022-10-17T01:40:06.745Z,719.16
2022-10-17T01:41:06.742Z,718.61
2022-10-17T01:42:06.747Z,717.88
2022-10-17T01:43:06.713Z,717.70
2022-10-17T01:44:06.697Z,717.67
2022-10-17T01:45:06.714Z,717.89
2022-10-17T01:46:06.692Z,718.64
2022-10-17T01:47:06.694Z,718.33
2022-10-17T01:48:06.662Z,718.01
2022-10-17T01:49:06.689Z,717.60
2022-10-17T01:50:06.638Z,717.31
2022-10-17T01:51:06.654Z,716.85
2022-10-17T01:52:06.642Z,715.57
2022-10-17T01:53:06.614Z,713.93
2022-10-17T01:54:06.593Z,713.56
2022-10-17T01:55:06.605Z,713.41
2022-10-17T01:56:06.595Z,713.22
2022-10-17T01:57:06.565Z,712.96
2022-10-17T01:58:06.553Z,712.53
2022-10-17T01:59:06.668Z,712.46
2022-10-17T02:00:06.534Z,712.68
2022-10-17T02:01:06.572Z,712.97
2022-10-17T02:02:06.515Z,712.94
2022-10-17T02:03:06.515Z,712.69
2022-10-17T02:04:06.484Z,712.31
2022-10-17T02:05:06.497Z,711.39
2022-10-17T02:06:06.499Z,710.85
2022-10-17T02:07:06.456Z,710.62
2022-10-17T02:08:06.436Z,711.07
2022-10-17T02:09:06.446Z,711.28
2022-10-17T02:10:06.749Z,710.77
2022-10-17T02:11:06.407Z,710.96
2022-10-17T02:12:06.406Z,710.77
2022-10-17T02:13:06.398Z,710.49
2022-10-17T02:14:06.412Z,710.30
2022-10-17T02:15:06.348Z,710.53
2022-10-17T02:16:06.413Z,711.39
2022-10-17T02:17:06.345Z,711.54
2022-10-17T02:18:06.320Z,711.89
2022-10-17T02:19:06.355Z,711.81
2022-10-17T02:20:07.038Z,711.76
2022-10-17T02:21:06.300Z,711.77
2022-10-17T02:22:06.300Z,711.76
2022-10-17T02:23:06.292Z,711.42
2022-10-17T02:24:06.261Z,711.67
2022-10-17T02:25:06.240Z,712.21
2022-10-17T02:26:06.271Z,712.56
2022-10-17T02:27:18.778Z,712.62
2022-10-17T02:28:06.251Z,713.36
2022-10-17T02:29:13.468Z,713.60
2022-10-17T02:30:06.256Z,714.35
2022-10-17T02:31:06.199Z,715.12
2022-10-17T02:32:06.183Z,715.40
2022-10-17T02:33:06.159Z,715.45
2022-10-17T02:34:06.168Z,716.14
2022-10-17T02:35:06.161Z,716.16
2022-10-17T02:36:06.168Z,715.71
2022-10-17T02:37:06.152Z,716.13
2022-10-17T02:38:06.127Z,715.84
2022-10-17T02:39:06.099Z,715.23
2022-10-17T02:40:06.150Z,714.86
2022-10-17T02:41:06.115Z,714.87
2022-10-17T02:42:06.072Z,715.32
2022-10-17T02:43:06.058Z,715.53
2022-10-17T02:44:06.069Z,715.02
2022-10-17T02:45:06.051Z,714.44
2022-10-17T02:46:06.032Z,713.86
2022-10-17T02:47:06.040Z,713.88
2022-10-17T02:48:06.017Z,713.65
2022-10-17T02:49:06.021Z,713.82
2022-10-17T02:50:06.100Z,714.15
2022-10-17T02:51:05.999Z,714.64
2022-10-17T02:52:05.972Z,715.08
2022-10-17T02:53:05.962Z,715.36
2022-10-17T02:54:05.951Z,715.50
2022-10-17T02:55:05.962Z,714.93
2022-10-17T02:56:05.924Z,714.39
2022-10-17T02:57:05.918Z,713.75
2022-10-17T02:58:05.907Z,713.94
2022-10-17T02:59:05.920Z,713.93
2022-10-17T03:00:05.883Z,714.47
2022-10-17T03:01:05.928Z,714.52
2022-10-17T03:02:05.879Z,714.40
2022-10-17T03:03:05.845Z,714.88
2022-10-17T03:04:05.887Z,715.10
2022-10-17T03:05:05.845Z,714.44
2022-10-17T03:06:05.830Z,713.87
2022-10-17T03:07:05.803Z,713.83
2022-10-17T03:08:05.795Z,713.84
2022-10-17T03:09:05.777Z,713.87
2022-10-17T03:10:05.789Z,713.94
2022-10-17T03:11:05.821Z,714.36
2022-10-17T03:12:05.758Z,714.48
2022-10-17T03:13:05.737Z,714.86
2022-10-17T03:14:05.759Z,715.13
2022-10-17T03:15:05.749Z,715.13
2022-10-17T03:16:05.708Z,714.39
2022-10-17T03:17:05.688Z,714.08
2022-10-17T03:18:05.698Z,714.09
2022-10-17T03:19:05.691Z,714.14
2022-10-17T03:20:05.724Z,714.11
2022-10-17T03:21:05.670Z,714.23
2022-10-17T03:22:05.651Z,714.45
2022-10-17T03:23:05.639Z,714.53
2022-10-17T03:24:05.632Z,714.30
2022-10-17T03:25:05.617Z,713.94
2022-10-17T03:26:05.609Z,713.53
2022-10-17T03:27:05.591Z,713.04
2022-10-17T03:28:05.585Z,712.35
2022-10-17T03:29:05.599Z,712.27
2022-10-17T03:30:05.561Z,712.97
2022-10-17T03:31:05.571Z,713.92
2022-10-17T03:32:05.541Z,715.47
2022-10-17T03:33:05.518Z,715.96
2022-10-17T03:34:05.511Z,715.88
2022-10-17T03:35:05.502Z,715.47
2022-10-17T03:36:05.499Z,715.24
2022-10-17T03:37:05.499Z,715.24
2022-10-17T03:38:05.482Z,714.53
2022-10-17T03:39:05.542Z,714.35
2022-10-17T03:40:05.461Z,714.23
2022-10-17T03:41:05.465Z,713.71
2022-10-17T03:42:05.437Z,713.98
2022-10-17T03:43:05.406Z,714.38
2022-10-17T03:44:05.404Z,714.66
2022-10-17T03:45:05.406Z,714.57
2022-10-17T03:46:05.457Z,714.94
2022-10-17T03:47:08.104Z,715.48
2022-10-17T03:48:06.374Z,715.97
2022-10-17T03:49:05.353Z,716.22
2022-10-17T03:50:05.342Z,716.70
2022-10-17T03:51:05.344Z,716.77
2022-10-17T03:52:05.327Z,716.86
2022-10-17T03:53:05.303Z,716.40
2022-10-17T03:54:05.301Z,716.08
2022-10-17T03:55:05.307Z,716.34
2022-10-17T03:56:05.315Z,715.87
2022-10-17T03:57:05.271Z,715.78
2022-10-17T03:58:05.266Z,716.20
2022-10-17T03:59:05.276Z,716.36
2022-10-17T04:00:05.227Z,716.20
2022-10-17T04:01:05.288Z,716.51
2022-10-17T04:02:05.217Z,716.90
2022-10-17T04:03:05.207Z,717.13
2022-10-17T04:04:05.199Z,717.32
2022-10-17T04:05:05.208Z,717.47
2022-10-17T04:06:05.198Z,717.08
2022-10-17T04:07:05.157Z,716.74
2022-10-17T04:08:05.155Z,716.66
2022-10-17T04:09:05.157Z,716.84
2022-10-17T04:10:05.130Z,716.61
2022-10-17T04:11:05.129Z,716.11
2022-10-17T04:12:05.112Z,715.52
2022-10-17T04:13:05.117Z,714.99
2022-10-17T04:14:05.071Z,714.44
2022-10-17T04:15:12.361Z,713.82
2022-10-17T04:16:05.050Z,713.78
2022-10-17T04:17:05.060Z,713.23
2022-10-17T04:19:05.029Z,712.98
2022-10-17T04:20:05.032Z,711.88
2022-10-17T04:21:05.044Z,711.58
2022-10-17T04:22:04.992Z,711.90
2022-10-17T04:23:04.994Z,712.18
2022-10-17T04:24:04.992Z,712.56
2022-10-17T04:25:04.972Z,713.29
2022-10-17T04:26:04.982Z,713.51
2022-10-17T04:27:04.999Z,714.12
2022-10-17T04:28:04.934Z,714.65
2022-10-17T04:29:04.924Z,714.98
2022-10-17T04:30:04.953Z,715.65
2022-10-17T04:31:04.914Z,716.24
2022-10-17T04:32:05.150Z,716.27
2022-10-17T04:33:04.879Z,716.60
2022-10-17T04:34:04.885Z,717.09
2022-10-17T04:35:04.868Z,717.40
2022-10-17T04:36:04.853Z,717.94
2022-10-17T04:37:04.845Z,718.33
2022-10-17T04:38:04.864Z,718.41
2022-10-17T04:39:04.837Z,718.77
2022-10-17T04:40:04.846Z,719.29
2022-10-17T04:41:04.805Z,719.83
2022-10-17T04:42:04.776Z,720.22
2022-10-17T04:43:04.768Z,720.73
2022-10-17T04:44:04.763Z,721.69
2022-10-17T04:45:04.792Z,721.49
2022-10-17T04:46:04.746Z,721.79
2022-10-17T04:47:04.728Z,721.98
2022-10-17T04:48:04.736Z,721.91
2022-10-17T04:49:04.700Z,722.23
2022-10-17T04:50:04.713Z,722.47
2022-10-17T04:51:04.689Z,722.19
2022-10-17T04:52:04.678Z,721.44
2022-10-17T04:53:04.657Z,720.49
2022-10-17T04:54:04.649Z,720.23
2022-10-17T04:55:04.671Z,719.61
2022-10-17T04:56:04.623Z,719.91
2022-10-17T04:57:04.620Z,720.56
2022-10-17T04:58:04.612Z,721.52
2022-10-17T04:59:04.607Z,722.14
2022-10-17T05:00:04.673Z,722.76
2022-10-17T05:01:04.626Z,723.09
2022-10-17T05:02:04.570Z,723.02
2022-10-17T05:03:04.575Z,722.93
2022-10-17T05:04:04.550Z,723.18
2022-10-17T05:05:04.553Z,723.00
2022-10-17T05:06:04.519Z,721.93
2022-10-17T05:07:04.524Z,721.25
2022-10-17T05:08:04.512Z,721.18
2022-10-17T05:09:04.481Z,721.20
2022-10-17T05:10:04.508Z,721.04
2022-10-17T05:11:04.475Z,721.62
2022-10-17T05:12:06.721Z,721.60
2022-10-17T05:13:05.458Z,722.32
2022-10-17T05:14:04.472Z,723.06
2022-10-17T05:15:04.453Z,723.51
2022-10-17T05:16:04.406Z,723.44
2022-10-17T05:17:04.423Z,723.08
2022-10-17T05:18:04.414Z,723.58
2022-10-17T05:19:04.383Z,724.03
2022-10-17T05:20:04.414Z,724.33
2022-10-17T05:21:04.366Z,724.78
2022-10-17T05:22:04.360Z,724.74
2022-10-17T05:23:04.338Z,724.59
2022-10-17T05:24:04.336Z,724.57
2022-10-17T05:25:04.356Z,723.73
2022-10-17T05:26:04.317Z,721.69
2022-10-17T05:27:04.303Z,721.32
2022-10-17T05:28:04.307Z,721.13
2022-10-17T05:29:05.507Z,721.21
2022-10-17T05:30:04.276Z,721.28
2022-10-17T05:31:04.265Z,720.98
2022-10-17T05:32:04.258Z,720.37
2022-10-17T05:33:04.227Z,720.26
2022-10-17T05:34:04.248Z,719.51
2022-10-17T05:35:04.236Z,719.12
2022-10-17T05:36:04.196Z,719.59
2022-10-17T05:37:04.199Z,720.38
2022-10-17T05:38:04.203Z,720.97
2022-10-17T05:39:04.177Z,721.50
2022-10-17T05:40:04.164Z,722.09
2022-10-17T05:41:04.176Z,722.56
2022-10-17T05:42:04.144Z,723.25
2022-10-17T05:43:04.143Z,723.81
2022-10-17T05:44:05.623Z,724.80
2022-10-17T05:45:04.120Z,724.68
2022-10-17T05:46:04.121Z,725.01
2022-10-17T05:47:04.080Z,725.43
2022-10-17T05:48:04.080Z,726.22
2022-10-17T05:49:14.664Z,727.60
2022-10-17T05:50:05.054Z,728.14
2022-10-17T05:51:04.060Z,729.06
2022-10-17T05:52:04.051Z,730.26
2022-10-17T05:53:04.016Z,731.41
2022-10-17T05:54:04.011Z,732.45
2022-10-17T05:55:04.030Z,733.01
2022-10-17T05:56:03.994Z,733.24
2022-10-17T05:57:04.000Z,733.96
2022-10-17T05:58:03.962Z,734.69
2022-10-17T05:59:03.960Z,735.84
2022-10-17T06:00:03.952Z,737.07
2022-10-17T06:01:13.477Z,737.71
2022-10-17T06:02:11.278Z,738.56
2022-10-17T06:03:11.163Z,738.76
2022-10-17T06:04:11.157Z,739.51
2022-10-17T06:05:12.144Z,740.29
2022-10-17T06:06:12.133Z,740.79
2022-10-17T06:07:03.855Z,741.62
2022-10-17T06:08:03.843Z,742.66
2022-10-17T06:09:03.841Z,743.66
2022-10-17T06:10:03.841Z,744.62
2022-10-17T06:11:06.144Z,745.68
2022-10-17T06:12:04.818Z,747.00
2022-10-17T06:13:03.806Z,748.15
2022-10-17T06:14:03.792Z,749.55
2022-10-17T06:15:04.036Z,751.06
2022-10-17T06:16:03.796Z,751.78
2022-10-17T06:17:03.752Z,752.50
2022-10-17T06:18:03.739Z,753.71
2022-10-17T06:19:03.754Z,754.30
2022-10-17T06:20:03.744Z,754.54
2022-10-17T06:21:03.752Z,754.85
2022-10-17T06:22:03.725Z,755.47
2022-10-17T06:23:03.706Z,755.59
2022-10-17T06:24:03.679Z,754.73
2022-10-17T06:25:03.667Z,753.44
2022-10-17T06:26:03.717Z,751.60
2022-10-17T06:27:05.853Z,751.06
2022-10-17T06:28:04.904Z,750.73
2022-10-17T06:29:03.681Z,750.84
2022-10-17T06:30:03.657Z,751.54
2022-10-17T06:31:03.618Z,752.21
2022-10-17T06:32:03.595Z,752.76
2022-10-17T06:33:03.590Z,753.62
2022-10-17T06:34:03.578Z,754.20
2022-10-17T06:35:03.575Z,754.38
2022-10-17T06:36:03.556Z,754.19
2022-10-17T06:37:03.560Z,754.24
2022-10-17T06:38:03.549Z,754.84
2022-10-17T06:39:03.533Z,754.58
2022-10-17T06:40:03.539Z,754.74
2022-10-17T06:41:03.499Z,754.07
2022-10-17T06:42:03.494Z,754.45
2022-10-17T06:43:03.488Z,754.42
2022-10-17T06:44:03.467Z,754.07
2022-10-17T06:45:03.475Z,754.39
2022-10-17T06:46:03.469Z,754.99
2022-10-17T06:47:03.459Z,755.55
2022-10-17T06:48:03.432Z,756.39
2022-10-17T06:49:07.451Z,758.18
2022-10-17T06:50:03.420Z,759.28
2022-10-17T06:51:03.384Z,761.49
2022-10-17T06:52:03.475Z,764.23
2022-10-17T06:53:03.376Z,767.49
2022-10-17T06:54:03.376Z,769.98
2022-10-17T06:56:03.382Z,769.54
2022-10-17T06:57:03.322Z,773.88
2022-10-17T06:58:03.302Z,778.55
2022-10-17T06:59:03.347Z,780.35
2022-10-17T07:00:03.302Z,780.89
2022-10-17T07:01:03.350Z,776.49
2022-10-17T07:02:03.390Z,778.01
2022-10-17T07:03:04.284Z,782.62
2022-10-17T07:04:03.254Z,784.11
2022-10-17T07:05:03.262Z,785.03
2022-10-17T07:06:03.243Z,780.45
2022-10-17T07:07:03.229Z,771.26
2022-10-17T07:08:03.214Z,775.72
2022-10-17T07:09:03.217Z,782.98
2022-10-17T07:10:03.214Z,786.76
2022-10-17T07:11:03.214Z,790.59
2022-10-17T07:12:03.303Z,790.45
2022-10-17T07:13:03.185Z,785.51
2022-10-17T07:14:03.164Z,782.03
2022-10-17T07:15:03.222Z,772.97
2022-10-17T07:16:03.179Z,764.76
2022-10-17T07:17:03.105Z,756.80
2022-10-17T07:18:03.095Z,757.30
2022-10-17T07:19:03.100Z,760.21
2022-10-17T07:20:03.107Z,752.88
2022-10-17T07:21:03.067Z,752.53
2022-10-17T07:22:03.158Z,753.60
2022-10-17T07:23:03.043Z,752.02
2022-10-17T07:24:03.078Z,751.34
2022-10-17T07:25:03.035Z,748.09
2022-10-17T07:26:03.006Z,745.07
2022-10-17T07:27:02.983Z,743.04
2022-10-17T07:28:03.015Z,739.32
2022-10-17T07:29:03.697Z,737.71
2022-10-17T07:30:02.966Z,737.16
2022-10-17T07:31:02.931Z,736.83
2022-10-17T07:32:03.008Z,736.69
2022-10-17T07:33:03.278Z,734.78
2022-10-17T07:34:02.911Z,734.00
2022-10-17T07:35:02.901Z,732.50
2022-10-17T07:36:02.860Z,732.50
2022-10-17T07:37:02.863Z,731.10
2022-10-17T07:38:02.850Z,731.19
2022-10-17T07:39:02.842Z,733.15
2022-10-17T07:40:02.852Z,735.15
2022-10-17T07:41:02.842Z,737.05
2022-10-17T07:42:02.840Z,738.29
2022-10-17T07:43:02.981Z,738.07
2022-10-17T07:44:02.796Z,740.94
2022-10-17T07:45:02.799Z,740.49
2022-10-17T07:46:02.761Z,745.07
2022-10-17T07:47:02.741Z,744.25
2022-10-17T07:48:10.997Z,744.91
2022-10-17T07:49:11.036Z,749.51
2022-10-17T07:50:09.983Z,746.45
2022-10-17T07:51:10.949Z,748.72
2022-10-17T07:52:10.952Z,753.48
2022-10-17T07:53:14.879Z,748.54
2022-10-17T07:54:10.944Z,747.33
2022-10-17T07:55:10.942Z,743.65
2022-10-17T07:56:10.758Z,740.64
2022-10-17T07:57:02.637Z,741.37
2022-10-17T07:58:02.618Z,743.44
2022-10-17T07:59:05.203Z,745.11
2022-10-17T08:00:03.643Z,749.93
2022-10-17T08:02:02.570Z,754.87
2022-10-17T08:03:02.709Z,750.46
2022-10-17T08:04:02.573Z,744.04
2022-10-17T08:05:02.558Z,748.48
2022-10-17T08:06:02.572Z,742.10
2022-10-17T08:07:18.383Z,743.07
2022-10-17T08:08:03.521Z,742.13
2022-10-17T08:09:02.500Z,743.03
2022-10-17T08:10:02.605Z,744.75
2022-10-17T08:11:02.620Z,743.25
2022-10-17T08:12:02.546Z,748.70
2022-10-17T08:13:02.532Z,756.50
2022-10-17T08:14:02.742Z,761.86
2022-10-17T08:15:02.434Z,764.23
2022-10-17T08:16:02.463Z,759.00
2022-10-17T08:17:02.401Z,759.56
2022-10-17T08:18:02.397Z,761.12
2022-10-17T08:19:02.683Z,764.27
2022-10-17T08:20:02.375Z,766.40
2022-10-17T08:21:02.373Z,763.16
2022-10-17T08:22:02.370Z,763.28
2022-10-17T08:23:02.344Z,765.48
2022-10-17T08:24:02.313Z,771.62
2022-10-17T08:25:02.359Z,768.96
2022-10-17T08:26:02.317Z,763.40
2022-10-17T08:27:02.285Z,763.83
2022-10-17T08:28:02.300Z,763.42
2022-10-17T08:29:02.403Z,765.47
2022-10-17T08:30:02.385Z,757.84
2022-10-17T08:31:02.286Z,749.21
2022-10-17T08:32:03.673Z,746.47
2022-10-17T08:33:02.270Z,744.00
2022-10-17T08:34:02.207Z,744.73
2022-10-17T08:35:02.197Z,742.90
2022-10-17T08:36:02.197Z,752.08
2022-10-17T08:37:02.408Z,736.85
2022-10-17T08:38:02.184Z,732.53
2022-10-17T08:39:02.186Z,731.55
2022-10-17T08:40:02.157Z,734.85
2022-10-17T08:41:02.150Z,750.29
2022-10-17T08:42:02.186Z,763.07
2022-10-17T08:43:02.168Z,747.39
2022-10-17T08:44:02.097Z,741.28
2022-10-17T08:45:02.348Z,748.89
2022-10-17T08:46:02.168Z,762.61
2022-10-17T08:47:02.061Z,767.52
2022-10-17T08:48:02.038Z,761.34
2022-10-17T08:49:02.039Z,751.70
2022-10-17T08:50:02.105Z,783.39
2022-10-17T08:51:02.031Z,768.99
2022-10-17T08:52:02.023Z,752.99
2022-10-17T08:53:02.022Z,757.02
2022-10-17T08:54:01.973Z,753.27
2022-10-17T08:55:01.963Z,752.80
2022-10-17T08:56:01.965Z,756.16
2022-10-17T08:57:01.932Z,749.83
2022-10-17T08:58:01.938Z,749.12
2022-10-17T08:59:01.920Z,747.55
2022-10-17T09:00:01.921Z,747.47
2022-10-17T09:01:01.902Z,745.16
2022-10-17T09:02:01.900Z,742.00
2022-10-17T09:03:02.667Z,738.60
2022-10-17T09:04:01.880Z,736.79
2022-10-17T09:05:01.890Z,736.40
2022-10-17T09:06:01.852Z,736.48
2022-10-17T09:07:01.830Z,743.11
2022-10-17T09:08:01.823Z,760.19
2022-10-17T09:09:02.459Z,756.73
2022-10-17T09:10:01.805Z,735.79
2022-10-17T09:11:01.804Z,731.23
2022-10-17T09:12:01.782Z,731.53
2022-10-17T09:13:07.620Z,730.54
2022-10-17T09:14:02.746Z,751.88
2022-10-17T09:15:01.729Z,779.21
2022-10-17T09:16:01.761Z,784.75
2022-10-17T09:17:01.707Z,775.14
2022-10-17T09:18:01.708Z,835.65
2022-10-17T09:19:01.736Z,847.70
2022-10-17T09:20:01.687Z,865.42
2022-10-17T09:21:01.762Z,868.10
2022-10-17T09:22:01.685Z,896.36
2022-10-17T09:23:01.712Z,899.99
2022-10-17T09:24:09.446Z,918.15
2022-10-17T09:25:02.688Z,911.07
2022-10-17T09:26:02.636Z,909.00
2022-10-17T09:27:01.648Z,917.71
2022-10-17T09:28:01.588Z,924.53
2022-10-17T09:29:01.751Z,923.67
2022-10-17T09:30:01.659Z,924.30
2022-10-17T09:31:01.585Z,923.71
2022-10-17T09:32:01.652Z,926.20
2022-10-17T09:33:01.615Z,918.59
2022-10-17T09:34:01.613Z,893.16
2022-10-17T09:35:01.649Z,878.52
2022-10-17T09:36:01.623Z,852.52
2022-10-17T09:37:01.506Z,853.76
2022-10-17T09:38:01.499Z,887.77
2022-10-17T09:39:01.482Z,867.28
2022-10-17T09:40:01.454Z,841.91
2022-10-17T09:41:01.577Z,901.61
2022-10-17T09:42:01.486Z,896.57
2022-10-17T09:43:01.450Z,885.20
2022-10-17T09:44:08.709Z,864.15
2022-10-17T09:45:08.688Z,866.37
2022-10-17T09:46:01.408Z,822.93
2022-10-17T09:47:09.687Z,828.93
2022-10-17T09:48:01.901Z,827.49
2022-10-17T09:50:01.473Z,868.59
2022-10-17T09:51:21.914Z,840.65
2022-10-17T09:52:02.323Z,830.81
2022-10-17T09:53:02.047Z,817.22
2022-10-17T09:54:01.371Z,799.75
2022-10-17T09:55:01.913Z,783.42
2022-10-17T09:56:01.312Z,770.49
2022-10-17T09:57:01.277Z,768.47
2022-10-17T09:58:01.255Z,775.92
2022-10-17T09:59:01.264Z,805.52
2022-10-17T10:00:01.335Z,805.31
2022-10-17T10:01:01.636Z,811.41
2022-10-17T10:02:01.285Z,816.09
2022-10-17T10:03:01.207Z,818.31
2022-10-17T10:04:01.196Z,816.79
2022-10-17T10:05:06.031Z,842.66
2022-10-17T10:06:02.222Z,813.35
2022-10-17T10:07:01.212Z,826.34
2022-10-17T10:08:01.166Z,880.03
2022-10-17T10:09:01.165Z,873.29
2022-10-17T10:10:01.140Z,834.07
2022-10-17T10:11:01.131Z,855.68
2022-10-17T10:12:01.157Z,884.92
2022-10-17T10:13:01.101Z,856.98
2022-10-17T10:14:01.100Z,864.97
2022-10-17T10:15:01.079Z,854.09
2022-10-17T10:16:01.071Z,906.78
2022-10-17T10:17:01.062Z,896.56
2022-10-17T10:18:01.101Z,882.42
2022-10-17T10:19:02.753Z,862.77
2022-10-17T10:20:01.024Z,844.05
2022-10-17T10:21:01.001Z,845.97
2022-10-17T10:22:01.037Z,792.26
2022-10-17T10:23:00.975Z,820.35
2022-10-17T10:24:01.011Z,830.00
2022-10-17T10:25:00.966Z,809.39
2022-10-17T10:26:01.080Z,787.84
2022-10-17T10:27:01.001Z,771.26
2022-10-17T10:28:01.665Z,709.72
2022-10-17T10:29:00.994Z,694.06
2022-10-17T10:30:00.912Z,684.50
2022-10-17T10:31:00.915Z,682.93
2022-10-17T10:32:00.876Z,684.49
2022-10-17T10:33:00.915Z,692.01
2022-10-17T10:34:00.866Z,714.25
2022-10-17T10:35:00.875Z,717.54
2022-10-17T10:36:00.857Z,765.68
2022-10-17T10:37:00.825Z,801.10
2022-10-17T10:38:00.882Z,815.33
2022-10-17T10:39:03.830Z,830.27
2022-10-17T10:40:00.795Z,859.59
2022-10-17T10:41:00.795Z,905.62
2022-10-17T10:42:00.758Z,902.72
2022-10-17T10:43:05.214Z,902.57
2022-10-17T10:44:01.744Z,876.77
2022-10-17T10:45:01.717Z,841.67
2022-10-17T10:46:00.763Z,792.63
2022-10-17T10:47:00.754Z,724.09
2022-10-17T10:48:00.712Z,694.31
2022-10-17T10:49:00.694Z,683.84
2022-10-17T10:50:00.678Z,688.20
2022-10-17T10:51:00.703Z,745.30
2022-10-17T10:52:00.638Z,803.04
2022-10-17T10:53:00.637Z,767.59
2022-10-17T10:54:00.643Z,811.89
2022-10-17T10:55:00.632Z,804.89
2022-10-17T10:56:00.650Z,765.30
2022-10-17T10:57:00.592Z,730.95
2022-10-17T10:58:00.603Z,761.25
2022-10-17T10:59:00.572Z,773.46
2022-10-17T11:00:00.571Z,759.76
2022-10-17T11:01:00.645Z,772.66
2022-10-17T11:02:00.541Z,800.60
2022-10-17T11:03:01.834Z,825.96
2022-10-17T11:04:00.533Z,735.89
2022-10-17T11:05:00.537Z,706.93
2022-10-17T11:06:00.527Z,696.91
2022-10-17T11:07:00.489Z,697.33
2022-10-17T11:08:00.504Z,695.86
2022-10-17T11:09:00.496Z,688.88
2022-10-17T11:10:00.472Z,679.07
2022-10-17T11:11:00.491Z,674.15
2022-10-17T11:12:00.423Z,693.57
2022-10-17T11:13:00.428Z,671.35
2022-10-17T11:14:01.481Z,670.64
2022-10-17T11:15:01.228Z,662.68
2022-10-17T11:16:00.411Z,658.67
2022-10-17T11:17:00.679Z,657.49
2022-10-17T11:18:00.394Z,655.88
2022-10-17T11:19:00.508Z,656.55
2022-10-17T11:20:00.347Z,659.42
2022-10-17T11:21:00.347Z,667.44
2022-10-17T11:22:00.316Z,679.86
2022-10-17T11:23:00.312Z,703.89
2022-10-17T11:24:00.308Z,736.85
2022-10-17T11:25:00.281Z,773.42
2022-10-17T11:26:00.291Z,791.39
2022-10-17T11:27:00.279Z,801.59
2022-10-17T11:28:04.713Z,770.81
2022-10-17T11:29:01.323Z,739.83
2022-10-17T11:30:00.250Z,717.45
2022-10-17T11:31:02.329Z,704.78
2022-10-17T11:32:00.225Z,694.62
2022-10-17T11:33:00.991Z,685.55
2022-10-17T11:34:00.190Z,679.95
2022-10-17T11:35:00.227Z,674.06
2022-10-17T11:36:00.173Z,667.93
2022-10-17T11:37:00.159Z,665.75
2022-10-17T11:38:08.404Z,665.30
2022-10-17T11:39:07.759Z,666.17
2022-10-17T11:40:07.408Z,664.96
2022-10-17T11:41:07.346Z,661.47
2022-10-17T11:42:08.868Z,658.87
2022-10-17T11:43:00.118Z,657.20
2022-10-17T11:44:00.055Z,654.36
2022-10-17T11:45:00.080Z,654.02
2022-10-17T11:46:00.035Z,654.70
2022-10-17T11:47:00.068Z,657.64
2022-10-17T11:48:00.039Z,660.65
2022-10-17T11:49:00.018Z,665.14
2022-10-17T11:51:59.658Z,671.65
2022-10-17T11:52:02.375Z,684.84
2022-10-17T11:53:00.296Z,686.03
2022-10-17T11:53:59.960Z,681.81
2022-10-17T11:54:59.988Z,673.16
2022-10-17T11:55:59.919Z,664.98
2022-10-17T11:56:59.938Z,660.23
2022-10-17T11:57:59.960Z,658.34
2022-10-17T11:58:59.910Z,657.43
2022-10-17T11:59:59.945Z,659.46
2022-10-17T12:00:59.893Z,660.57
2022-10-17T12:01:59.873Z,661.34
2022-10-17T12:02:59.908Z,660.24
2022-10-17T12:03:59.887Z,661.20
2022-10-17T12:05:00.168Z,660.43
2022-10-17T12:05:59.830Z,657.18
2022-10-17T12:06:59.843Z,654.26
2022-10-17T12:08:00.631Z,652.01
2022-10-17T12:08:59.829Z,650.50
2022-10-17T12:09:59.822Z,650.86
2022-10-17T12:11:02.713Z,651.08
2022-10-17T12:11:59.756Z,651.27
2022-10-17T12:12:59.789Z,649.97
2022-10-17T12:14:04.934Z,648.50
2022-10-17T12:15:00.745Z,647.66
2022-10-17T12:15:59.716Z,648.85
2022-10-17T12:16:59.707Z,648.29
2022-10-17T12:17:59.694Z,647.00
2022-10-17T12:18:59.679Z,645.15
2022-10-17T12:19:59.767Z,642.61
2022-10-17T12:20:59.740Z,642.69
2022-10-17T12:21:59.785Z,643.40
2022-10-17T12:22:59.650Z,643.77
2022-10-17T12:23:59.685Z,645.68
2022-10-17T12:24:59.897Z,647.39
2022-10-17T12:26:01.638Z,650.89
2022-10-17T12:26:59.589Z,652.40
2022-10-17T12:27:59.682Z,653.92
2022-10-17T12:28:59.622Z,654.98
2022-10-17T12:29:59.632Z,655.29
2022-10-17T12:30:59.624Z,655.68
2022-10-17T12:31:59.551Z,655.70
2022-10-17T12:33:07.828Z,655.95